Time;durP1;ratioP1;P1;durP2;ratioP2;P2;SDS_P1;SDS_P2;PMS_P1;PMS_P2;Temp;Humidity;BMP_temperature;BMP_pressure;BME280_temperature;BME280_humidity;BME280_pressure;Samples;Min_cycle;Max_cycle;Signal;HPM_P1;HPM_P2
2021/12/11 00:01:45;;;;;;;96.60;40.88;;;;;;;-3.39;85.34;99868.26;1732291;82;20911;-74
2021/12/11 00:04:32;;;;;;;92.20;38.28;;;;;;;-3.37;85.24;99867.48;1723398;82;20943;-74
2021/12/11 00:07:02;;;;;;;90.35;37.58;;;;;;;-3.37;85.24;99867.48;1722026;83;21368;-74
2021/12/11 00:09:38;;;;;;;95.45;41.25;;;;;;;-3.35;85.16;99875.97;1717185;82;21466;-74
2021/12/11 00:12:14;;;;;;;94.83;38.92;;;;;;;-3.35;85.16;99875.97;1722793;83;20907;-74
2021/12/11 00:14:47;;;;;;;100.85;39.78;;;;;;;-3.36;85.24;99881.84;1723835;83;20935;-74
2021/12/11 00:17:24;;;;;;;89.95;38.70;;;;;;;-3.35;85.24;99881.42;1716033;82;20922;-74
2021/12/11 00:19:52;;;;;;;89.75;37.53;;;;;;;-3.42;85.29;99875.75;1722219;82;21439;-74
2021/12/11 00:22:22;;;;;;;91.97;38.28;;;;;;;-3.33;85.42;99886.13;1732611;82;21383;-74
2021/12/11 00:24:49;;;;;;;93.62;39.08;;;;;;;-3.32;85.22;99882.78;1723520;81;21477;-74
2021/12/11 00:27:22;;;;;;;93.87;38.25;;;;;;;-3.32;85.28;99886.97;1722769;82;21406;-74
2021/12/11 00:29:49;;;;;;;92.75;36.38;;;;;;;-3.32;85.05;99890.36;1737539;81;21447;-74
2021/12/11 00:32:26;;;;;;;90.77;38.83;;;;;;;-3.29;85.33;99895.50;1732478;82;22027;-74
2021/12/11 00:35:13;;;;;;;94.52;37.70;;;;;;;-3.27;85.31;99898.07;1743119;82;21444;-74
2021/12/11 00:37:40;;;;;;;82.10;36.88;;;;;;;-3.27;85.30;99900.60;1741435;82;21476;-74
2021/12/11 00:40:25;;;;;;;98.50;39.10;;;;;;;-3.27;85.30;99898.93;1708321;82;21470;-74
2021/12/11 00:43:02;;;;;;;84.30;35.70;;;;;;;-3.39;85.18;99885.95;1704212;82;21462;-74
2021/12/11 00:45:32;;;;;;;96.35;38.63;;;;;;;-3.39;85.18;99885.95;1724746;82;20967;-74
2021/12/11 00:48:05;;;;;;;93.15;39.33;;;;;;;-3.30;85.27;99903.04;1711750;83;21423;-74
2021/12/11 00:50:36;;;;;;;95.07;38.35;;;;;;;-3.35;85.28;99896.59;1707638;83;21462;-74
2021/12/11 00:53:10;;;;;;;85.55;37.13;;;;;;;-3.30;85.33;99914.02;1692050;83;20954;-74
2021/12/11 00:55:45;;;;;;;96.35;39.00;;;;;;;-3.28;85.31;99917.44;1693864;83;21104;-74
2021/12/11 00:58:18;;;;;;;88.62;37.17;;;;;;;-3.30;85.23;99927.05;1701628;83;21489;-74
2021/12/11 01:00:59;;;;;;;89.10;37.95;;;;;;;-3.32;85.24;99928.27;1691841;82;21104;-74
2021/12/11 01:03:38;;;;;;;90.92;37.90;;;;;;;-3.35;85.21;99926.92;1709659;83;21493;-74
2021/12/11 01:06:18;;;;;;;87.40;37.38;;;;;;;-3.38;85.20;99933.16;1701832;83;21080;-74
2021/12/11 01:08:55;;;;;;;83.58;35.83;;;;;;;-3.39;84.99;99933.97;1695491;83;21383;-74
2021/12/11 01:11:35;;;;;;;86.60;36.05;;;;;;;-3.42;85.21;99936.00;1697491;83;21045;-74
2021/12/11 01:14:26;;;;;;;90.65;36.55;;;;;;;-3.53;85.23;99915.88;1704838;83;21587;-74
2021/12/11 01:17:04;;;;;;;87.80;36.40;;;;;;;-3.41;85.30;99935.59;1703929;82;21067;-74
2021/12/11 01:19:36;;;;;;;87.42;36.10;;;;;;;-3.42;85.39;99936.00;1711224;83;20934;-74
2021/12/11 01:22:00;;;;;;;92.20;37.90;;;;;;;-3.43;85.18;99943.13;1743364;80;21112;-74
2021/12/11 01:24:45;;;;;;;98.00;38.08;;;;;;;-3.53;85.31;99927.25;1740007;80;21508;-74
2021/12/11 01:27:17;;;;;;;97.30;37.45;;;;;;;-3.53;85.31;99927.25;1736393;80;21576;-74
2021/12/11 01:29:47;;;;;;;93.30;37.53;;;;;;;-3.45;85.28;99952.74;1715433;82;615088;-74
2021/12/11 01:32:15;;;;;;;99.35;38.13;;;;;;;-3.44;85.18;99953.19;1718878;81;21879;-74
2021/12/11 01:34:43;;;;;;;93.05;39.40;;;;;;;-3.41;85.37;99950.35;1724865;81;20965;-74
2021/12/11 01:37:11;;;;;;;87.97;36.05;;;;;;;-3.39;85.36;99958.83;1725012;81;21537;-74
2021/12/11 01:39:40;;;;;;;99.87;39.08;;;;;;;-3.49;85.29;99949.67;1724611;81;20937;-74
2021/12/11 01:42:12;;;;;;;93.22;38.80;;;;;;;-3.48;85.28;99952.25;1712121;83;21107;-74
2021/12/11 01:44:42;;;;;;;102.05;38.02;;;;;;;-3.43;85.22;99968.81;1735419;81;20989;-74
2021/12/11 01:47:20;;;;;;;97.97;37.67;;;;;;;-3.45;85.25;99975.08;1716302;81;20886;-74
2021/12/11 01:49:51;;;;;;;83.50;35.70;;;;;;;-3.45;85.18;99979.28;1741865;81;20942;-74
2021/12/11 01:52:37;;;;;;;84.30;35.23;;;;;;;-3.53;85.22;99971.47;1732287;81;21367;-74
2021/12/11 01:55:03;;;;;;;87.42;36.98;;;;;;;-3.57;85.17;99978.50;1731765;81;20918;-74
2021/12/11 01:57:31;;;;;;;87.90;37.08;;;;;;;-3.56;85.18;99994.52;1725305;81;20941;-74
2021/12/11 02:00:11;;;;;;;88.50;36.50;;;;;;;-3.63;85.09;99996.00;1725088;81;20928;-74
2021/12/11 02:02:48;;;;;;;87.17;34.25;;;;;;;-3.64;85.13;100002.30;1724670;81;20938;-74
2021/12/11 02:05:31;;;;;;;93.65;36.20;;;;;;;-3.64;85.13;100002.30;1731766;81;20932;-74
2021/12/11 02:08:02;;;;;;;93.58;37.28;;;;;;;-3.68;85.21;100004.73;1750851;81;20930;-74
2021/12/11 02:10:35;;;;;;;87.40;35.48;;;;;;;-3.72;85.18;100004.59;1728770;81;20897;-74
2021/12/11 02:13:05;;;;;;;93.10;36.33;;;;;;;-3.82;85.24;99989.95;1730071;81;20906;-74
2021/12/11 02:15:38;;;;;;;86.70;36.13;;;;;;;-3.73;85.38;100002.47;1719792;81;20960;-74
2021/12/11 02:18:15;;;;;;;94.10;37.50;;;;;;;-3.71;85.19;100015.14;1780642;79;20930;-74
2021/12/11 02:20:52;;;;;;;91.30;36.30;;;;;;;-3.71;85.19;100015.14;1779653;78;20882;-74
2021/12/11 02:23:20;;;;;;;95.75;36.25;;;;;;;-3.69;85.30;100015.64;1775481;79;21020;-74
2021/12/11 02:25:49;;;;;;;91.67;36.95;;;;;;;-3.68;85.28;100019.89;1764097;79;20857;-74
2021/12/11 02:28:24;;;;;;;91.00;37.08;;;;;;;-3.67;85.32;100022.88;1776975;79;20988;-74
2021/12/11 02:31:03;;;;;;;88.30;35.92;;;;;;;-3.65;85.30;100029.23;1767426;79;21055;-73
2021/12/11 02:33:33;;;;;;;;;;;;;;;-3.65;85.25;100034.29;1776540;79;20988;-74
2021/12/11 02:36:14;;;;;;;85.00;32.42;;;;;;;-3.70;85.14;100036.67;1781424;79;20189;-74
2021/12/11 02:39:13;;;;;;;91.75;35.45;;;;;;;-3.74;85.10;100042.43;1762681;79;21103;-74
2021/12/11 02:42:06;;;;;;;90.87;34.88;;;;;;;-3.79;85.11;100045.22;1762254;79;21036;-74
2021/12/11 02:44:50;;;;;;;94.52;36.28;;;;;;;-3.80;85.17;100048.55;1763586;79;20941;-74
2021/12/11 02:47:22;;;;;;;96.87;38.33;;;;;;;-3.83;85.15;100054.77;1764245;79;20929;-74
2021/12/11 02:50:18;;;;;;;89.55;34.80;;;;;;;-3.85;85.15;100061.84;1764350;79;20869;-74
2021/12/11 02:52:59;;;;;;;92.60;36.13;;;;;;;-3.88;85.15;100066.38;1742495;80;20902;-74
2021/12/11 02:55:33;;;;;;;88.27;34.13;;;;;;;-3.89;85.09;100071.38;1742079;80;20918;-74
2021/12/11 02:58:05;;;;;;;;;;;;;;;-3.93;85.10;100078.41;1764539;79;21005;-74
2021/12/11 03:00:37;;;;;;;80.15;31.10;;;;;;;-3.94;85.17;100086.78;1736830;80;21018;-74
2021/12/11 03:03:07;;;;;;;79.58;34.85;;;;;;;-3.96;85.12;100082.09;1742234;80;21026;-74
2021/12/11 03:05:44;;;;;;;87.25;32.83;;;;;;;-4.00;85.06;100087.03;1750624;80;20965;-74
2021/12/11 03:08:12;;;;;;;78.17;32.33;;;;;;;-4.05;85.06;100079.70;1733291;80;20934;-74
2021/12/11 03:10:41;;;;;;;93.27;33.95;;;;;;;-4.07;85.01;100080.06;1744119;80;20910;-74
2021/12/11 03:13:08;;;;;;;90.70;35.40;;;;;;;-4.08;85.08;100080.00;1738919;80;21499;-74
2021/12/11 03:15:35;;;;;;;92.80;35.63;;;;;;;-4.13;85.03;100078.59;1739012;80;21061;-74
2021/12/11 03:18:05;;;;;;;84.80;34.98;;;;;;;-4.16;85.02;100084.80;1744049;80;21049;-74
2021/12/11 03:20:32;;;;;;;100.58;37.10;;;;;;;-4.31;85.19;100072.94;1737431;80;21088;-74
2021/12/11 03:23:01;;;;;;;92.17;34.85;;;;;;;-4.31;85.19;100072.94;1749223;80;21021;-74
2021/12/11 03:25:29;;;;;;;87.90;36.13;;;;;;;-4.22;85.07;100090.06;1747839;80;21085;-74
2021/12/11 03:27:57;;;;;;;91.90;37.38;;;;;;;-4.22;85.04;100095.11;1741673;80;21125;-74
2021/12/11 03:30:28;;;;;;;98.60;34.65;;;;;;;-4.24;85.07;100095.46;1771029;80;21081;-74
2021/12/11 03:33:00;;;;;;;86.15;35.95;;;;;;;-4.26;85.00;100094.15;1742674;80;21088;-74
2021/12/11 03:35:28;;;;;;;89.80;34.50;;;;;;;-4.27;85.00;100093.69;1736934;80;21850;-74
2021/12/11 03:37:56;;;;;;;88.58;34.03;;;;;;;-4.29;84.98;100096.56;1742253;80;21038;-74
2021/12/11 03:40:24;;;;;;;79.55;32.15;;;;;;;-4.32;84.91;100094.34;1746954;80;20938;-74
2021/12/11 03:42:53;;;;;;;79.70;32.83;;;;;;;-4.40;84.82;100091.14;1746811;80;20945;-74
2021/12/11 03:45:24;;;;;;;84.70;32.70;;;;;;;-4.44;84.82;100101.93;1742148;80;20902;-74
2021/12/11 03:47:56;;;;;;;78.30;31.50;;;;;;;-4.46;84.90;100106.47;1738701;80;20945;-73
2021/12/11 03:50:24;;;;;;;80.47;34.05;;;;;;;-4.46;84.93;100110.25;1739066;80;20934;-73
2021/12/11 03:52:53;;;;;;;87.22;35.20;;;;;;;-4.47;84.91;100118.63;1763472;80;20938;-73
2021/12/11 03:55:28;;;;;;;80.38;33.20;;;;;;;-4.49;84.92;100126.53;1755508;80;20965;-74
2021/12/11 03:57:59;;;;;;;84.65;32.67;;;;;;;-4.49;84.93;100132.84;1751211;80;20937;-74
2021/12/11 04:00:27;;;;;;;82.35;33.73;;;;;;;-4.52;84.91;100132.33;1750757;80;302395;-74
2021/12/11 04:03:02;;;;;;;86.42;33.02;;;;;;;-4.53;84.87;100132.27;1738397;80;21089;-74
2021/12/11 04:05:22;;;;;;;77.92;31.87;;;;;;;-4.60;84.74;100141.68;1736339;80;21119;-74
2021/12/11 04:07:50;;;;;;;76.47;33.20;;;;;;;-4.67;84.73;100143.11;1753368;80;20953;-74
2021/12/11 04:10:21;;;;;;;91.35;33.92;;;;;;;-4.71;84.71;100151.41;1740908;80;21093;-74
2021/12/11 04:12:48;;;;;;;85.45;34.10;;;;;;;-4.73;84.84;100159.31;1742862;80;21025;-74
2021/12/11 04:15:16;;;;;;;84.92;34.27;;;;;;;-4.74;84.87;100158.86;1736706;80;21017;-74
2021/12/11 04:17:43;;;;;;;83.35;33.75;;;;;;;-4.73;84.95;100162.69;1745781;80;21561;-74
2021/12/11 04:20:17;;;;;;;74.25;32.35;;;;;;;-4.73;84.90;100159.31;1742082;80;21065;-74
2021/12/11 04:22:44;;;;;;;83.55;34.50;;;;;;;-4.76;84.84;100160.05;1739885;80;20989;-74
2021/12/11 04:25:13;;;;;;;80.42;33.28;;;;;;;-4.79;84.81;100169.17;1746591;80;21919;-74
2021/12/11 04:27:40;;;;;;;88.17;35.17;;;;;;;-4.82;84.86;100169.05;1740000;80;21280;-74
2021/12/11 04:30:10;;;;;;;81.20;33.08;;;;;;;-4.84;84.87;100170.25;1743368;80;20917;-74
2021/12/11 04:32:38;;;;;;;83.40;33.18;;;;;;;-4.85;84.87;100167.27;1747951;80;21281;-74
2021/12/11 04:35:08;;;;;;;86.40;33.98;;;;;;;-4.89;84.76;100171.73;1744053;80;21474;-74
2021/12/11 04:37:36;;;;;;;84.03;33.67;;;;;;;-4.93;84.74;100177.46;1737818;80;21024;-74
2021/12/11 04:40:15;;;;;;;82.82;33.45;;;;;;;-4.96;84.76;100188.69;1745929;80;22303;-74
2021/12/11 04:42:54;;;;;;;80.28;33.50;;;;;;;-4.97;84.80;100194.53;1748103;80;20914;-74
2021/12/11 04:45:27;;;;;;;93.30;33.63;;;;;;;-4.97;84.82;100200.83;1738908;80;20898;-74
2021/12/11 04:48:04;;;;;;;92.67;34.73;;;;;;;-5.00;84.73;100206.61;1748463;79;20902;-73
2021/12/11 04:50:35;;;;;;;92.15;34.63;;;;;;;-5.03;84.72;100210.27;1768256;80;20917;-74
2021/12/11 04:52:58;;;;;;;87.88;35.25;;;;;;;-5.04;84.72;100211.47;1738101;80;20891;-74
2021/12/11 04:55:58;;;;;;;84.47;33.05;;;;;;;-5.07;84.71;100220.17;1746656;80;20895;-74
2021/12/11 05:01:05;;;;;;;83.52;35.00;;;;;;;-5.10;84.77;100225.09;1744346;80;21006;-74
2021/12/11 05:11:41;;;;;;;89.97;33.92;;;;;;;-5.12;84.81;100238.03;1740389;80;20903;-74
2021/12/11 05:14:02;;;;;;;84.22;33.92;;;;;;;-5.12;84.80;100238.89;1734993;80;20902;-73
2021/12/11 05:16:29;;;;;;;85.12;32.90;;;;;;;-5.14;84.82;100227.89;1742262;80;20901;-73
2021/12/11 05:18:55;;;;;;;;;;;;;;;-5.15;84.81;100236.24;1751932;80;20921;-73
2021/12/11 05:21:21;;;;;;;;;;;;;;;-5.16;84.77;100234.92;1740138;80;20105;-74
2021/12/11 05:23:49;;;;;;;;;;;;;;;-5.19;84.74;100240.70;1743671;80;20136;-74
2021/12/11 05:26:16;;;;;;;71.12;28.62;;;;;;;-5.19;84.70;100253.70;1742209;80;107204;-74
2021/12/11 05:28:42;;;;;;;81.47;32.75;;;;;;;-5.23;84.67;100253.14;1745616;80;20898;-73
2021/12/11 05:31:16;;;;;;;92.02;35.40;;;;;;;-5.26;84.64;100261.84;1781387;79;20916;-73
2021/12/11 05:33:43;;;;;;;92.72;34.43;;;;;;;-5.28;84.64;100255.88;1755039;79;20894;-73
2021/12/11 05:36:12;;;;;;;98.07;36.20;;;;;;;-5.36;84.56;100259.33;1758251;79;20902;-73
2021/12/11 05:38:47;;;;;;;82.53;33.08;;;;;;;-5.38;84.67;100269.34;1757036;80;20941;-73
2021/12/11 05:41:18;;;;;;;88.33;33.55;;;;;;;-5.39;84.69;100263.84;1775102;80;20854;-74
2021/12/11 05:43:46;;;;;;;90.67;35.52;;;;;;;-5.38;84.75;100274.78;1752003;80;20858;-74
2021/12/11 05:46:15;;;;;;;100.53;36.28;;;;;;;-5.39;84.72;100275.58;1746673;80;20863;-74
2021/12/11 05:48:46;;;;;;;99.92;34.70;;;;;;;-5.43;84.68;100273.33;1744932;80;20950;-73
2021/12/11 05:51:18;;;;;;;93.62;36.15;;;;;;;-5.45;84.67;100277.44;1749769;80;20973;-73
2021/12/11 05:53:43;;;;;;;93.50;34.70;;;;;;;-5.46;84.68;100279.89;1756332;80;21033;-74
2021/12/11 05:56:12;;;;;;;86.53;35.23;;;;;;;-5.49;84.64;100279.37;1771728;79;21438;-74
2021/12/11 06:01:35;;;;;;;104.90;35.85;;;;;;;-5.56;84.63;100273.61;1743956;80;21052;-74
2021/12/11 06:04:07;;;;;;;97.75;34.92;;;;;;;-5.57;84.68;100278.17;1744874;79;21108;-74
2021/12/11 06:06:34;;;;;;;98.30;35.63;;;;;;;-5.59;84.72;100281.42;1742683;80;21417;-74
2021/12/11 06:09:04;;;;;;;94.10;32.38;;;;;;;-5.60;84.72;100284.73;1753458;80;21303;-74
2021/12/11 06:11:32;;;;;;;103.53;35.90;;;;;;;-5.67;84.50;100286.99;1752121;80;21234;-74
2021/12/11 06:13:59;;;;;;;99.17;35.83;;;;;;;-5.71;84.53;100291.83;1762463;80;20950;-73
2021/12/11 06:16:26;;;;;;;104.47;35.83;;;;;;;-5.74;84.56;100298.02;1756186;80;20930;-73
2021/12/11 06:18:52;;;;;;;97.42;35.83;;;;;;;-5.77;84.55;100305.05;1762495;80;20918;-73
2021/12/11 06:21:18;;;;;;;95.53;36.00;;;;;;;-5.77;84.65;100307.56;1754412;80;24631;-74
2021/12/11 06:23:44;;;;;;;98.33;35.85;;;;;;;-5.76;84.71;100308.42;1749299;80;21040;-74
2021/12/11 06:26:11;;;;;;;101.27;34.60;;;;;;;-5.76;84.72;100310.94;1743132;80;21076;-74
2021/12/11 06:28:38;;;;;;;96.72;35.08;;;;;;;-5.77;84.60;100316.77;1749464;80;20939;-74
2021/12/11 06:31:06;;;;;;;89.30;36.48;;;;;;;-5.79;84.62;100326.77;1764512;79;21057;-74
2021/12/11 06:33:36;;;;;;;91.70;35.98;;;;;;;-5.81;84.58;100336.31;1756789;80;20890;-74
2021/12/11 06:36:08;;;;;;;103.45;39.78;;;;;;;-5.83;84.61;100339.16;1761068;79;20886;-74
2021/12/11 06:38:36;;;;;;;98.07;38.90;;;;;;;-5.84;84.58;100344.59;1749638;80;21367;-74
2021/12/11 06:41:07;;;;;;;95.57;36.45;;;;;;;-5.82;84.63;100342.14;1722781;80;20890;-74
2021/12/11 06:43:34;;;;;;;93.65;35.68;;;;;;;-5.82;84.63;100346.78;1744715;80;20925;-74
2021/12/11 06:46:00;;;;;;;90.70;34.40;;;;;;;-5.81;84.67;100356.05;1758990;80;21336;-74
2021/12/11 06:48:27;;;;;;;94.87;37.13;;;;;;;-5.78;84.74;100354.94;1744894;79;20940;-74
2021/12/11 06:50:56;;;;;;;95.92;35.92;;;;;;;-5.72;84.79;100360.21;1763609;79;20893;-73
2021/12/11 06:53:36;;;;;;;96.63;39.30;;;;;;;-5.68;84.74;100367.11;1783393;78;21492;-73
2021/12/11 06:56:05;;;;;;;92.78;36.05;;;;;;;-5.68;84.73;100363.73;1788801;79;20901;-73
2021/12/11 06:58:32;;;;;;;109.60;43.17;;;;;;;-5.64;84.75;100361.81;1783594;79;21338;-74
2021/12/11 07:00:59;;;;;;;94.15;42.23;;;;;;;-5.64;84.68;100359.30;1773575;79;21096;-73
2021/12/11 07:03:31;;;;;;;100.12;39.25;;;;;;;-5.64;84.68;100360.95;1773862;79;20960;-74
2021/12/11 07:05:59;;;;;;;97.27;38.60;;;;;;;-5.66;84.63;100358.36;1761733;79;20944;-74
2021/12/11 07:08:27;;;;;;;88.10;38.65;;;;;;;-5.70;84.57;100357.36;1781223;79;21492;-74
2021/12/11 07:10:53;;;;;;;94.40;38.50;;;;;;;-5.71;84.62;100364.45;1772655;79;20925;-74
2021/12/11 07:13:20;;;;;;;104.05;37.42;;;;;;;-5.70;84.63;100362.80;1776752;79;20937;-74
2021/12/11 07:15:47;;;;;;;90.75;38.58;;;;;;;-5.70;84.70;100367.83;1764587;79;21083;-73
2021/12/11 07:18:13;;;;;;;99.90;38.53;;;;;;;-5.66;84.78;100375.59;1762085;79;21079;-73
2021/12/11 07:20:40;;;;;;;87.75;34.45;;;;;;;-5.63;84.74;100408.88;1767418;79;21064;-73
2021/12/11 07:23:07;;;;;;;90.75;34.55;;;;;;;-5.59;84.77;100414.91;1778932;79;21576;-73
2021/12/11 07:26:03;;;;;;;93.95;35.92;;;;;;;-5.61;84.65;100414.84;1763253;79;21009;-73
2021/12/11 07:28:30;;;;;;;90.30;36.08;;;;;;;-5.58;84.73;100422.53;1769829;79;21037;-73
2021/12/11 07:31:00;;;;;;;91.60;35.38;;;;;;;-5.53;84.79;100427.38;1770206;79;21095;-73
2021/12/11 07:33:26;;;;;;;91.67;35.17;;;;;;;-5.52;84.73;100426.59;1762903;79;20905;-74
2021/12/11 07:35:52;;;;;;;;;;;;;;;-5.52;84.65;100434.55;1768346;79;20846;-73
2021/12/11 07:38:19;;;;;;;90.43;36.17;;;;;;;-5.53;84.64;100431.16;1774501;79;20223;-73
2021/12/11 07:40:51;;;;;;;96.37;38.10;;;;;;;-5.55;84.55;100427.71;1770451;79;21390;-73
2021/12/11 07:43:19;;;;;;;92.62;36.35;;;;;;;-5.56;84.57;100429.77;1780947;79;21315;-73
2021/12/11 07:45:46;;;;;;;102.40;36.40;;;;;;;-5.55;84.61;100437.78;1793541;79;20929;-73
2021/12/11 07:48:13;;;;;;;90.72;37.20;;;;;;;-5.52;84.63;100444.62;1780649;79;20940;-74
2021/12/11 07:50:40;;;;;;;126.50;43.55;;;;;;;-5.51;84.64;100449.73;1783736;80;20909;-73
2021/12/11 07:53:06;;;;;;;135.82;48.92;;;;;;;-5.50;84.61;100447.67;1783766;79;20883;-73
2021/12/11 07:55:33;;;;;;;148.28;51.63;;;;;;;-5.49;84.62;100453.58;1766845;80;21033;-73
2021/12/11 07:58:03;;;;;;;138.28;50.10;;;;;;;-5.49;84.58;100450.66;1776218;79;21343;-73
2021/12/11 08:00:30;;;;;;;121.40;49.38;;;;;;;-5.48;84.58;100452.78;1766273;80;20977;-74
2021/12/11 08:02:57;;;;;;;107.78;43.08;;;;;;;-5.48;84.55;100460.34;1758214;80;21020;-73
2021/12/11 08:05:27;;;;;;;107.55;40.78;;;;;;;-5.50;84.53;100460.27;1740978;80;21012;-74
2021/12/11 08:07:53;;;;;;;115.82;44.77;;;;;;;-5.52;84.48;100469.81;1766737;80;20920;-74
2021/12/11 08:10:23;;;;;;;107.37;44.03;;;;;;;-5.51;84.55;100479.09;1721019;81;21610;-73
2021/12/11 08:12:50;;;;;;;105.05;41.23;;;;;;;-5.51;84.54;100473.66;1730898;82;21025;-73
2021/12/11 08:15:18;;;;;;;102.75;41.65;;;;;;;-5.52;84.55;100482.01;1721281;82;21088;-73
2021/12/11 08:17:52;;;;;;;102.67;39.75;;;;;;;-5.51;84.59;100484.98;1752231;81;21473;-73
2021/12/11 08:20:15;;;;;;;96.63;38.25;;;;;;;-5.48;84.59;100495.21;1734881;81;20946;-73
2021/12/11 08:22:41;;;;;;;100.92;37.40;;;;;;;-5.48;84.58;100493.95;1729552;81;20969;-73
2021/12/11 08:25:08;;;;;;;111.20;40.73;;;;;;;-5.46;84.62;100492.76;1738134;81;20946;-73
2021/12/11 08:27:35;;;;;;;104.00;40.25;;;;;;;-5.43;84.62;100500.06;1748270;81;20941;-74
2021/12/11 08:30:03;;;;;;;108.12;39.55;;;;;;;-5.41;84.60;100498.48;1752202;81;21024;-74
2021/12/11 08:32:30;;;;;;;112.35;41.95;;;;;;;-5.41;84.55;100506.44;1718504;81;21136;-74
2021/12/11 08:34:56;;;;;;;98.60;38.92;;;;;;;-5.39;84.60;100494.37;1772660;80;21037;-74
2021/12/11 08:37:25;;;;;;;106.05;39.05;;;;;;;-5.36;84.59;100503.33;1785019;79;21037;-74
2021/12/11 08:39:52;;;;;;;100.62;37.30;;;;;;;-5.38;84.53;100509.09;1778852;80;21370;-74
2021/12/11 08:42:23;;;;;;;95.70;36.70;;;;;;;-5.37;84.58;100511.69;1783970;79;21436;-74
2021/12/11 08:44:58;;;;;;;94.45;36.42;;;;;;;-5.35;84.58;100515.53;1780533;80;20922;-73
2021/12/11 08:47:23;;;;;;;92.37;35.98;;;;;;;-5.33;84.62;100511.42;1782228;80;20866;-74
2021/12/11 08:49:54;;;;;;;89.20;37.10;;;;;;;-5.31;84.66;100506.45;1789415;79;20929;-74
2021/12/11 08:52:35;;;;;;;98.27;40.23;;;;;;;-5.31;84.55;100513.62;1788674;79;21461;-74
2021/12/11 08:55:05;;;;;;;99.37;40.43;;;;;;;-5.28;84.63;100517.94;1787619;79;22153;-74
2021/12/11 08:57:36;;;;;;;96.87;38.48;;;;;;;-5.25;84.68;100520.59;1776270;79;195565;-74
2021/12/11 09:00:23;;;;;;;89.47;37.65;;;;;;;-5.23;84.59;100516.48;1781813;79;20953;-73
2021/12/11 09:03:00;;;;;;;98.62;38.02;;;;;;;-5.22;84.61;100523.26;1778961;79;21584;-74
2021/12/11 09:05:46;;;;;;;90.42;35.58;;;;;;;-5.20;84.61;100531.75;1764427;79;21494;-75
2021/12/11 09:09:01;;;;;;;97.10;37.42;;;;;;;-5.18;84.60;100538.95;1789648;79;21626;-75
2021/12/11 09:11:33;;;;;;;93.25;39.10;;;;;;;-5.16;84.61;100547.05;1792663;79;21004;-75
2021/12/11 09:14:07;;;;;;;92.97;38.80;;;;;;;-5.11;84.70;100548.52;1792072;79;21525;-75
2021/12/11 09:16:42;;;;;;;92.65;38.02;;;;;;;-5.06;84.72;100563.06;1787421;79;21528;-73
2021/12/11 09:19:14;;;;;;;94.42;36.05;;;;;;;-5.00;84.73;100554.91;1785003;79;21052;-72
2021/12/11 09:21:57;;;;;;;98.92;39.25;;;;;;;-4.97;84.74;100557.97;1782079;79;21544;-75
2021/12/11 09:24:41;;;;;;;95.72;37.98;;;;;;;-4.91;84.79;100552.80;1781296;78;21099;-74
2021/12/11 09:27:21;;;;;;;107.78;40.95;;;;;;;-4.84;84.85;100548.90;1783165;79;21372;-74
2021/12/11 09:29:58;;;;;;;102.62;41.60;;;;;;;-4.78;84.80;100548.77;1790245;79;21536;-73
2021/12/11 09:32:38;;;;;;;108.45;44.60;;;;;;;-4.74;84.85;100541.81;1785799;79;21576;-72
2021/12/11 09:35:28;;;;;;;99.95;40.33;;;;;;;-4.67;84.86;100551.73;1774426;79;21368;-73
2021/12/11 09:38:00;;;;;;;99.42;41.40;;;;;;;-4.59;84.90;100548.29;1768051;79;45439;-73
2021/12/11 09:40:40;;;;;;;99.70;41.20;;;;;;;-4.48;85.02;100555.53;1785169;79;21572;-74
2021/12/11 09:43:06;;;;;;;101.95;39.80;;;;;;;-4.41;84.98;100554.99;1790160;79;22125;-74
2021/12/11 09:45:44;;;;;;;117.40;46.33;;;;;;;-4.34;84.94;100564.95;1792043;79;20971;-74
2021/12/11 09:48:15;;;;;;;114.45;45.40;;;;;;;-4.26;84.99;100569.06;1780353;79;21589;-74
2021/12/11 09:50:55;;;;;;;113.60;45.52;;;;;;;-4.16;85.04;100574.97;1754649;79;21017;-74
2021/12/11 09:53:26;;;;;;;108.65;44.88;;;;;;;-4.10;84.94;100576.45;1757900;79;21626;-74
2021/12/11 09:55:55;;;;;;;110.08;44.13;;;;;;;-4.05;84.93;100578.38;1750398;80;21104;-74
2021/12/11 09:58:27;;;;;;;104.27;41.98;;;;;;;-4.00;84.91;100589.93;1748762;80;21470;-74
2021/12/11 10:01:03;;;;;;;99.67;40.75;;;;;;;-4.05;84.80;100594.79;1759786;80;21439;-74
2021/12/11 10:03:38;;;;;;;99.52;41.18;;;;;;;-4.05;84.80;100594.79;1762149;80;21894;-74
2021/12/11 10:06:15;;;;;;;103.90;40.30;;;;;;;-3.91;84.86;100617.23;1761184;80;21376;-74
2021/12/11 10:08:44;;;;;;;;;;;;;;;-3.86;84.68;100618.30;1775066;79;20895;-74
2021/12/11 10:11:19;;;;;;;85.55;36.45;;;;;;;-3.82;84.88;100624.80;1764583;80;20091;-75
2021/12/11 10:14:06;;;;;;;97.30;41.13;;;;;;;-3.76;84.90;100624.19;1755931;80;20910;-74
2021/12/11 10:16:41;;;;;;;99.80;41.15;;;;;;;-3.76;84.90;100624.19;1769262;80;21446;-75
2021/12/11 10:19:12;;;;;;;;;;;;;;;-3.77;84.81;100628.78;1765393;80;21541;-74
2021/12/11 10:21:44;;;;;;;88.60;38.75;;;;;;;-3.80;84.57;100633.70;1724376;80;20125;-74
2021/12/11 10:24:15;;;;;;;95.12;40.17;;;;;;;-3.94;84.72;100615.44;1744168;80;20902;-74
2021/12/11 10:26:42;;;;;;;95.50;40.85;;;;;;;-3.94;84.72;100615.44;1747870;80;21016;-74
2021/12/11 10:29:12;;;;;;;100.60;41.15;;;;;;;-3.85;84.82;100636.03;1758947;80;20941;-74
2021/12/11 10:31:47;;;;;;;89.95;40.28;;;;;;;-3.85;84.82;100636.03;1752770;80;20847;-74
2021/12/11 10:34:18;;;;;;;90.72;40.38;;;;;;;-3.84;84.87;100637.77;1741384;80;21087;-74
2021/12/11 10:36:50;;;;;;;89.42;41.08;;;;;;;-3.80;84.79;100636.23;1743309;80;21004;-74
2021/12/11 10:39:17;;;;;;;102.27;42.33;;;;;;;-3.78;84.82;100639.69;1742251;80;21080;-74
2021/12/11 10:41:44;;;;;;;100.15;42.38;;;;;;;-3.72;84.90;100644.59;1761054;80;20990;-74
2021/12/11 10:44:23;;;;;;;101.12;42.45;;;;;;;-3.72;84.90;100644.59;1748872;79;20997;-74
2021/12/11 10:47:01;;;;;;;96.87;40.38;;;;;;;-3.68;84.90;100656.95;1769118;79;21898;-74
2021/12/11 10:49:28;;;;;;;106.22;44.65;;;;;;;-3.64;84.90;100660.07;1756009;80;21025;-75
2021/12/11 10:52:00;;;;;;;105.03;44.03;;;;;;;-3.68;85.02;100646.84;1763371;80;21028;-74
2021/12/11 10:54:29;;;;;;;101.05;44.55;;;;;;;-3.68;85.02;100646.84;1748059;80;21014;-74
2021/12/11 10:56:56;;;;;;;102.80;43.78;;;;;;;-3.55;84.85;100654.50;1755956;79;21073;-74
2021/12/11 10:59:30;;;;;;;101.35;43.05;;;;;;;-3.52;84.92;100661.81;1744844;80;21020;-74
2021/12/11 11:02:14;;;;;;;98.33;43.75;;;;;;;-3.49;84.88;100664.47;1743568;80;21097;-74
2021/12/11 11:04:52;;;;;;;93.47;41.90;;;;;;;-3.45;84.92;100668.84;1767506;80;21037;-74
2021/12/11 11:07:20;;;;;;;97.82;43.73;;;;;;;-3.41;84.89;100668.57;1743631;80;21081;-74
2021/12/11 11:09:49;;;;;;;103.10;44.27;;;;;;;-3.51;84.76;100661.41;1751981;80;21038;-75
2021/12/11 11:12:20;;;;;;;119.75;48.55;;;;;;;-3.53;84.79;100665.14;1766038;79;21034;-75
2021/12/11 11:14:49;;;;;;;107.37;46.90;;;;;;;-3.53;84.79;100665.14;1757629;80;21034;-75
2021/12/11 11:17:20;;;;;;;116.65;49.60;;;;;;;-3.44;84.75;100687.41;1746437;80;21077;-75
2021/12/11 11:19:49;;;;;;;119.47;50.15;;;;;;;-3.45;84.75;100687.80;1743326;80;21432;-75
2021/12/11 11:22:20;;;;;;;112.65;48.90;;;;;;;-3.45;84.79;100689.06;1741387;80;20985;-75
2021/12/11 11:24:52;;;;;;;119.57;51.30;;;;;;;-3.42;84.82;100695.52;1751132;80;21005;-75
2021/12/11 11:27:22;;;;;;;129.07;55.15;;;;;;;-3.38;84.90;100693.97;1756973;79;21521;-75
2021/12/11 11:29:49;;;;;;;126.35;54.77;;;;;;;-3.33;84.87;100702.61;1743745;79;21061;-75
2021/12/11 11:32:21;;;;;;;123.05;55.80;;;;;;;-3.30;84.84;100697.68;1744536;80;21049;-75
2021/12/11 11:34:47;;;;;;;140.03;63.50;;;;;;;-3.27;84.88;100704.13;1741513;80;21045;-75
2021/12/11 11:37:18;;;;;;;142.18;63.40;;;;;;;-3.23;84.89;100703.85;1744634;80;21084;-75
2021/12/11 11:39:48;;;;;;;153.70;70.05;;;;;;;-3.23;84.83;100703.45;1745402;80;20930;-75
2021/12/11 11:42:19;;;;;;;152.38;70.70;;;;;;;-3.21;84.87;100710.70;1744984;80;20946;-74
2021/12/11 11:44:48;;;;;;;146.30;65.70;;;;;;;-3.18;84.90;100720.94;1744962;80;20925;-74
2021/12/11 11:47:22;;;;;;;145.15;64.20;;;;;;;-3.14;84.91;100719.40;1769326;79;20902;-74